Station: EHBK - 18/06/2019 23:55Z (il y a 5 minutes)
EHBK 182355Z AUTO 14004KT 9999 NCD 20/15 Q1010
Vent du 140º - 4 kt
Visibilité > 10 km
Pas de nuages détectés
Température: +20ºC - Point de rosée: +15ºC - QNH: 1010 hPa